sensor_id;sensor_type;location;lat;lon;timestamp;pressure;altitude;pressure_sealevel;temperature;humidity
76378;BME280;65200;49.500;8.654;2023-06-22T00:00:46;100413.34;;;23.16;67.97
76378;BME280;65200;49.500;8.654;2023-06-22T00:03:13;100408.66;;;23.16;67.63
76378;BME280;65200;49.500;8.654;2023-06-22T00:05:39;100392.78;;;22.93;67.45
76378;BME280;65200;49.500;8.654;2023-06-22T00:08:05;100412.19;;;22.96;67.84
76378;BME280;65200;49.500;8.654;2023-06-22T00:10:32;100412.97;;;22.87;69.94
76378;BME280;65200;49.500;8.654;2023-06-22T00:13:00;100426.09;;;22.80;69.82
76378;BME280;65200;49.500;8.654;2023-06-22T00:15:26;100426.06;;;22.70;70.92
76378;BME280;65200;49.500;8.654;2023-06-22T00:17:53;100428.16;;;22.53;72.69
76378;BME280;65200;49.500;8.654;2023-06-22T00:20:19;100442.75;;;22.27;73.94
76378;BME280;65200;49.500;8.654;2023-06-22T00:22:46;100447.88;;;22.13;74.56
76378;BME280;65200;49.500;8.654;2023-06-22T00:25:13;100450.69;;;21.87;76.60
76378;BME280;65200;49.500;8.654;2023-06-22T00:27:39;100452.44;;;21.71;77.76
76378;BME280;65200;49.500;8.654;2023-06-22T00:30:08;100465.69;;;21.57;77.70
76378;BME280;65200;49.500;8.654;2023-06-22T00:32:34;100466.81;;;21.61;77.01
76378;BME280;65200;49.500;8.654;2023-06-22T00:35:01;100470.25;;;21.79;75.70
76378;BME280;65200;49.500;8.654;2023-06-22T00:37:27;100492.66;;;21.81;77.80
76378;BME280;65200;49.500;8.654;2023-06-22T00:39:54;100498.56;;;21.72;78.25
76378;BME280;65200;49.500;8.654;2023-06-22T00:42:21;100515.75;;;21.73;79.05
76378;BME280;65200;49.500;8.654;2023-06-22T00:44:47;100542.31;;;21.78;76.96
76378;BME280;65200;49.500;8.654;2023-06-22T00:47:17;100590.22;;;21.95;76.60
76378;BME280;65200;49.500;8.654;2023-06-22T00:49:44;100660.63;;;22.20;75.66
76378;BME280;65200;49.500;8.654;2023-06-22T00:52:12;100720.34;;;22.43;74.39
76378;BME280;65200;49.500;8.654;2023-06-22T00:54:46;100766.78;;;22.43;74.47
76378;BME280;65200;49.500;8.654;2023-06-22T00:57:14;100800.53;;;22.32;74.75
76378;BME280;65200;49.500;8.654;2023-06-22T00:59:41;100809.75;;;22.26;75.17
76378;BME280;65200;49.500;8.654;2023-06-22T01:02:08;100751.56;;;21.99;79.38
76378;BME280;65200;49.500;8.654;2023-06-22T01:04:37;100639.94;;;21.54;87.00
76378;BME280;65200;49.500;8.654;2023-06-22T01:07:10;100550.75;;;21.06;88.13
76378;BME280;65200;49.500;8.654;2023-06-22T01:09:46;100486.91;;;20.81;91.00
76378;BME280;65200;49.500;8.654;2023-06-22T01:12:16;100377.63;;;20.51;94.34
76378;BME280;65200;49.500;8.654;2023-06-22T01:14:47;100225.50;;;20.32;95.75
76378;BME280;65200;49.500;8.654;2023-06-22T01:17:19;100277.22;;;20.32;95.29
76378;BME280;65200;49.500;8.654;2023-06-22T01:19:49;100375.09;;;20.22;95.57
76378;BME280;65200;49.500;8.654;2023-06-22T01:22:21;100440.66;;;20.21;96.19
76378;BME280;65200;49.500;8.654;2023-06-22T01:24:55;100439.31;;;20.07;96.98
76378;BME280;65200;49.500;8.654;2023-06-22T01:27:32;100449.06;;;20.03;98.69
76378;BME280;65200;49.500;8.654;2023-06-22T01:30:04;100447.94;;;19.82;100.00
76378;BME280;65200;49.500;8.654;2023-06-22T01:32:34;100462.19;;;19.73;100.00
76378;BME280;65200;49.500;8.654;2023-06-22T01:35:03;100462.25;;;20.11;95.69
76378;BME280;65200;49.500;8.654;2023-06-22T01:37:32;100478.94;;;20.14;97.68
76378;BME280;65200;49.500;8.654;2023-06-22T01:40:00;100473.13;;;20.11;99.41
76378;BME280;65200;49.500;8.654;2023-06-22T01:42:30;100486.00;;;19.99;98.79
76378;BME280;65200;49.500;8.654;2023-06-22T01:44:57;100493.19;;;20.05;100.00
76378;BME280;65200;49.500;8.654;2023-06-22T01:47:26;100500.47;;;20.16;100.00
76378;BME280;65200;49.500;8.654;2023-06-22T01:49:53;100498.31;;;20.18;100.00
76378;BME280;65200;49.500;8.654;2023-06-22T01:52:20;100495.84;;;20.16;100.00
76378;BME280;65200;49.500;8.654;2023-06-22T01:54:47;100493.94;;;20.17;100.00
76378;BME280;65200;49.500;8.654;2023-06-22T01:57:14;100502.09;;;20.17;100.00
76378;BME280;65200;49.500;8.654;2023-06-22T01:59:48;100497.22;;;20.19;100.00
76378;BME280;65200;49.500;8.654;2023-06-22T02:02:19;100484.72;;;20.18;100.00
76378;BME280;65200;49.500;8.654;2023-06-22T02:04:57;100483.59;;;19.86;100.00
76378;BME280;65200;49.500;8.654;2023-06-22T02:07:28;100495.22;;;19.65;100.00
76378;BME280;65200;49.500;8.654;2023-06-22T02:09:58;100495.66;;;19.73;100.00
76378;BME280;65200;49.500;8.654;2023-06-22T02:12:26;100492.44;;;19.93;100.00
76378;BME280;65200;49.500;8.654;2023-06-22T02:14:54;100488.25;;;20.02;100.00
76378;BME280;65200;49.500;8.654;2023-06-22T02:17:21;100496.97;;;20.04;100.00
76378;BME280;65200;49.500;8.654;2023-06-22T02:19:48;100497.13;;;19.97;100.00
76378;BME280;65200;49.500;8.654;2023-06-22T02:22:16;100484.44;;;20.03;100.00
76378;BME280;65200;49.500;8.654;2023-06-22T02:24:42;100486.56;;;20.01;100.00
76378;BME280;65200;49.500;8.654;2023-06-22T02:27:09;100481.13;;;20.01;100.00
76378;BME280;65200;49.500;8.654;2023-06-22T02:29:36;100479.34;;;19.90;100.00
76378;BME280;65200;49.500;8.654;2023-06-22T02:32:03;100471.75;;;19.59;100.00
76378;BME280;65200;49.500;8.654;2023-06-22T02:34:30;100471.81;;;19.47;100.00
76378;BME280;65200;49.500;8.654;2023-06-22T02:36:59;100469.75;;;19.38;100.00
76378;BME280;65200;49.500;8.654;2023-06-22T02:39:27;100475.69;;;19.51;100.00
76378;BME280;65200;49.500;8.654;2023-06-22T02:41:54;100471.09;;;19.68;100.00
76378;BME280;65200;49.500;8.654;2023-06-22T02:44:21;100473.22;;;19.83;100.00
76378;BME280;65200;49.500;8.654;2023-06-22T02:46:48;100473.56;;;19.86;100.00
76378;BME280;65200;49.500;8.654;2023-06-22T02:49:15;100462.41;;;20.04;100.00
76378;BME280;65200;49.500;8.654;2023-06-22T02:51:44;100455.97;;;20.10;100.00
76378;BME280;65200;49.500;8.654;2023-06-22T02:54:10;100453.03;;;19.95;100.00
76378;BME280;65200;49.500;8.654;2023-06-22T02:56:38;100447.19;;;19.87;100.00
76378;BME280;65200;49.500;8.654;2023-06-22T02:59:09;100443.63;;;19.86;100.00
76378;BME280;65200;49.500;8.654;2023-06-22T03:01:36;100440.50;;;19.78;100.00
76378;BME280;65200;49.500;8.654;2023-06-22T03:04:05;100434.25;;;19.61;100.00
76378;BME280;65200;49.500;8.654;2023-06-22T03:06:31;100443.63;;;19.53;100.00
76378;BME280;65200;49.500;8.654;2023-06-22T03:09:00;100440.19;;;19.41;100.00
76378;BME280;65200;49.500;8.654;2023-06-22T03:11:27;100441.97;;;19.36;100.00
76378;BME280;65200;49.500;8.654;2023-06-22T03:13:54;100437.91;;;19.22;100.00
76378;BME280;65200;49.500;8.654;2023-06-22T03:16:21;100439.03;;;19.26;100.00
76378;BME280;65200;49.500;8.654;2023-06-22T03:18:47;100438.13;;;19.32;100.00
76378;BME280;65200;49.500;8.654;2023-06-22T03:21:14;100450.56;;;19.44;100.00
76378;BME280;65200;49.500;8.654;2023-06-22T03:23:42;100449.56;;;19.50;100.00
76378;BME280;65200;49.500;8.654;2023-06-22T03:26:08;100429.81;;;19.38;100.00
76378;BME280;65200;49.500;8.654;2023-06-22T03:28:35;100419.09;;;19.32;100.00
76378;BME280;65200;49.500;8.654;2023-06-22T03:31:03;100415.38;;;19.38;100.00
76378;BME280;65200;49.500;8.654;2023-06-22T03:33:29;100422.03;;;19.47;100.00
76378;BME280;65200;49.500;8.654;2023-06-22T03:35:56;100422.47;;;19.55;100.00
76378;BME280;65200;49.500;8.654;2023-06-22T03:38:22;100424.59;;;19.53;100.00
76378;BME280;65200;49.500;8.654;2023-06-22T03:40:48;100428.16;;;19.54;100.00
76378;BME280;65200;49.500;8.654;2023-06-22T03:43:15;100433.50;;;19.49;100.00
76378;BME280;65200;49.500;8.654;2023-06-22T03:45:41;100440.69;;;19.38;100.00
76378;BME280;65200;49.500;8.654;2023-06-22T03:48:12;100435.31;;;19.43;100.00
76378;BME280;65200;49.500;8.654;2023-06-22T03:50:38;100433.91;;;19.41;100.00
76378;BME280;65200;49.500;8.654;2023-06-22T03:53:04;100436.63;;;19.41;100.00
76378;BME280;65200;49.500;8.654;2023-06-22T03:55:31;100435.47;;;19.53;100.00
76378;BME280;65200;49.500;8.654;2023-06-22T03:57:57;100440.38;;;19.68;100.00
76378;BME280;65200;49.500;8.654;2023-06-22T04:00:30;100426.84;;;19.56;100.00
76378;BME280;65200;49.500;8.654;2023-06-22T04:02:57;100419.56;;;19.45;100.00
76378;BME280;65200;49.500;8.654;2023-06-22T04:05:25;100426.59;;;19.58;100.00
76378;BME280;65200;49.500;8.654;2023-06-22T04:07:51;100429.66;;;19.61;100.00
76378;BME280;65200;49.500;8.654;2023-06-22T04:10:17;100424.94;;;19.57;100.00
76378;BME280;65200;49.500;8.654;2023-06-22T04:12:44;100422.88;;;19.64;100.00
76378;BME280;65200;49.500;8.654;2023-06-22T04:15:10;100426.28;;;19.71;99.84
76378;BME280;65200;49.500;8.654;2023-06-22T04:17:37;100432.50;;;19.88;99.88
76378;BME280;65200;49.500;8.654;2023-06-22T04:20:05;100433.09;;;19.90;99.36
76378;BME280;65200;49.500;8.654;2023-06-22T04:22:33;100430.19;;;19.96;99.65
76378;BME280;65200;49.500;8.654;2023-06-22T04:25:00;100415.19;;;19.94;99.06
76378;BME280;65200;49.500;8.654;2023-06-22T04:27:26;100414.69;;;19.97;99.37
76378;BME280;65200;49.500;8.654;2023-06-22T04:29:52;100415.06;;;19.84;100.00
76378;BME280;65200;49.500;8.654;2023-06-22T04:32:19;100412.06;;;20.02;99.36
76378;BME280;65200;49.500;8.654;2023-06-22T04:34:45;100406.22;;;19.77;100.00
76378;BME280;65200;49.500;8.654;2023-06-22T04:37:12;100400.72;;;19.55;100.00
76378;BME280;65200;49.500;8.654;2023-06-22T04:39:42;100405.56;;;19.53;100.00
76378;BME280;65200;49.500;8.654;2023-06-22T04:42:08;100403.25;;;19.78;100.00
76378;BME280;65200;49.500;8.654;2023-06-22T04:44:34;100405.41;;;19.76;100.00
76378;BME280;65200;49.500;8.654;2023-06-22T04:47:01;100410.09;;;19.81;100.00
76378;BME280;65200;49.500;8.654;2023-06-22T04:49:29;100411.00;;;19.86;100.00
76378;BME280;65200;49.500;8.654;2023-06-22T04:51:59;100411.66;;;19.93;100.00
76378;BME280;65200;49.500;8.654;2023-06-22T04:54:25;100409.50;;;19.95;100.00
76378;BME280;65200;49.500;8.654;2023-06-22T04:56:53;100413.78;;;19.91;100.00
76378;BME280;65200;49.500;8.654;2023-06-22T04:59:21;100415.66;;;20.07;100.00
76378;BME280;65200;49.500;8.654;2023-06-22T05:01:53;100410.53;;;20.11;100.00
76378;BME280;65200;49.500;8.654;2023-06-22T05:04:20;100396.66;;;20.29;100.00
76378;BME280;65200;49.500;8.654;2023-06-22T05:06:46;100390.66;;;20.49;99.67
76378;BME280;65200;49.500;8.654;2023-06-22T05:09:12;100387.28;;;20.63;98.71
76378;BME280;65200;49.500;8.654;2023-06-22T05:11:39;100380.69;;;20.59;99.65
76378;BME280;65200;49.500;8.654;2023-06-22T05:14:07;100376.84;;;20.82;98.34
76378;BME280;65200;49.500;8.654;2023-06-22T05:16:33;100385.91;;;20.87;97.24
76378;BME280;65200;49.500;8.654;2023-06-22T05:19:00;100379.44;;;20.93;97.21
76378;BME280;65200;49.500;8.654;2023-06-22T05:21:28;100376.69;;;20.93;98.94
76378;BME280;65200;49.500;8.654;2023-06-22T05:23:55;100382.03;;;21.05;98.55
76378;BME280;65200;49.500;8.654;2023-06-22T05:26:26;100372.06;;;21.15;97.20
76378;BME280;65200;49.500;8.654;2023-06-22T05:28:53;100375.69;;;21.26;97.08
76378;BME280;65200;49.500;8.654;2023-06-22T05:31:21;100366.97;;;21.29;96.07
76378;BME280;65200;49.500;8.654;2023-06-22T05:33:50;100369.44;;;21.25;95.24
76378;BME280;65200;49.500;8.654;2023-06-22T05:36:17;100368.38;;;21.31;93.92
76378;BME280;65200;49.500;8.654;2023-06-22T05:38:45;100367.34;;;21.37;92.98
76378;BME280;65200;49.500;8.654;2023-06-22T05:41:11;100369.13;;;21.58;94.35
76378;BME280;65200;49.500;8.654;2023-06-22T05:43:39;100357.69;;;21.61;94.34
76378;BME280;65200;49.500;8.654;2023-06-22T05:46:05;100361.59;;;21.70;93.67
76378;BME280;65200;49.500;8.654;2023-06-22T05:48:33;100360.56;;;21.77;93.22
76378;BME280;65200;49.500;8.654;2023-06-22T05:51:00;100366.31;;;21.80;92.81
76378;BME280;65200;49.500;8.654;2023-06-22T05:53:26;100373.25;;;21.98;91.38
76378;BME280;65200;49.500;8.654;2023-06-22T05:55:53;100362.13;;;22.09;87.24
76378;BME280;65200;49.500;8.654;2023-06-22T05:58:19;100363.53;;;22.22;90.87
76378;BME280;65200;49.500;8.654;2023-06-22T06:00:45;100352.91;;;22.25;86.38
76378;BME280;65200;49.500;8.654;2023-06-22T06:03:13;100364.44;;;22.37;86.55
76378;BME280;65200;49.500;8.654;2023-06-22T06:05:44;100361.44;;;22.39;84.20
76378;BME280;65200;49.500;8.654;2023-06-22T06:08:11;100353.81;;;22.46;84.85
76378;BME280;65200;49.500;8.654;2023-06-22T06:10:38;100338.31;;;22.56;87.20
76378;BME280;65200;49.500;8.654;2023-06-22T06:13:04;100359.94;;;22.68;84.14
76378;BME280;65200;49.500;8.654;2023-06-22T06:15:31;100356.69;;;22.81;81.49
76378;BME280;65200;49.500;8.654;2023-06-22T06:17:58;100353.69;;;22.87;84.48
76378;BME280;65200;49.500;8.654;2023-06-22T06:20:26;100349.03;;;22.98;83.64
76378;BME280;65200;49.500;8.654;2023-06-22T06:22:55;100364.38;;;23.09;78.35
76378;BME280;65200;49.500;8.654;2023-06-22T06:25:22;100368.81;;;23.30;80.28
76378;BME280;65200;49.500;8.654;2023-06-22T06:27:50;100363.06;;;23.37;77.92
76378;BME280;65200;49.500;8.654;2023-06-22T06:30:19;100355.66;;;23.42;75.06
76378;BME280;65200;49.500;8.654;2023-06-22T06:32:50;100351.56;;;23.50;75.43
76378;BME280;65200;49.500;8.654;2023-06-22T06:35:19;100349.06;;;23.63;77.01
76378;BME280;65200;49.500;8.654;2023-06-22T06:37:47;100345.25;;;23.74;75.20
76378;BME280;65200;49.500;8.654;2023-06-22T06:40:17;100342.47;;;23.84;75.05
76378;BME280;65200;49.500;8.654;2023-06-22T06:42:45;100345.47;;;24.03;75.26
76378;BME280;65200;49.500;8.654;2023-06-22T06:45:12;100341.34;;;24.05;73.13
76378;BME280;65200;49.500;8.654;2023-06-22T06:47:39;100347.88;;;24.19;71.52
76378;BME280;65200;49.500;8.654;2023-06-22T06:50:07;100345.09;;;24.29;71.45
76378;BME280;65200;49.500;8.654;2023-06-22T06:52:34;100346.44;;;24.37;71.16
76378;BME280;65200;49.500;8.654;2023-06-22T06:55:03;100345.84;;;24.45;71.19
76378;BME280;65200;49.500;8.654;2023-06-22T06:57:35;100348.53;;;24.55;71.55
76378;BME280;65200;49.500;8.654;2023-06-22T07:00:05;100341.34;;;24.69;69.42
76378;BME280;65200;49.500;8.654;2023-06-22T07:02:38;100344.56;;;24.81;69.02
76378;BME280;65200;49.500;8.654;2023-06-22T07:05:07;100332.94;;;24.99;68.05
76378;BME280;65200;49.500;8.654;2023-06-22T07:07:34;100330.84;;;25.20;68.93
76378;BME280;65200;49.500;8.654;2023-06-22T07:10:02;100329.06;;;25.34;68.18
76378;BME280;65200;49.500;8.654;2023-06-22T07:12:31;100332.09;;;25.37;67.38
76378;BME280;65200;49.500;8.654;2023-06-22T07:15:03;100329.03;;;25.44;66.28
76378;BME280;65200;49.500;8.654;2023-06-22T07:17:31;100319.56;;;25.55;66.58
76378;BME280;65200;49.500;8.654;2023-06-22T07:19:58;100320.25;;;25.71;63.31
76378;BME280;65200;49.500;8.654;2023-06-22T07:22:28;100324.56;;;26.05;64.80
76378;BME280;65200;49.500;8.654;2023-06-22T07:24:56;100306.66;;;26.50;60.41
76378;BME280;65200;49.500;8.654;2023-06-22T07:27:22;100304.66;;;27.30;60.42
76378;BME280;65200;49.500;8.654;2023-06-22T07:29:49;100307.06;;;27.63;57.80
76378;BME280;65200;49.500;8.654;2023-06-22T07:32:17;100309.56;;;28.05;55.43
76378;BME280;65200;49.500;8.654;2023-06-22T07:34:43;100310.03;;;28.48;53.80
76378;BME280;65200;49.500;8.654;2023-06-22T07:37:10;100304.84;;;28.47;53.12
76378;BME280;65200;49.500;8.654;2023-06-22T07:39:36;100299.63;;;28.45;54.58
76378;BME280;65200;49.500;8.654;2023-06-22T07:42:03;100309.66;;;28.41;56.31
76378;BME280;65200;49.500;8.654;2023-06-22T07:44:30;100318.03;;;28.09;56.52
76378;BME280;65200;49.500;8.654;2023-06-22T07:46:56;100319.09;;;28.27;56.80
76378;BME280;65200;49.500;8.654;2023-06-22T07:49:24;100316.75;;;28.83;54.03
76378;BME280;65200;49.500;8.654;2023-06-22T07:51:50;100318.31;;;28.75;52.03
76378;BME280;65200;49.500;8.654;2023-06-22T07:54:17;100312.81;;;29.19;51.49
76378;BME280;65200;49.500;8.654;2023-06-22T07:56:43;100331.94;;;29.60;50.51
76378;BME280;65200;49.500;8.654;2023-06-22T07:59:10;100317.78;;;29.09;51.67
76378;BME280;65200;49.500;8.654;2023-06-22T08:01:36;100310.56;;;28.99;52.86
76378;BME280;65200;49.500;8.654;2023-06-22T08:04:03;100331.78;;;29.34;52.54
76378;BME280;65200;49.500;8.654;2023-06-22T08:06:32;100347.91;;;29.41;48.34
76378;BME280;65200;49.500;8.654;2023-06-22T08:08:58;100313.31;;;29.66;49.18
76378;BME280;65200;49.500;8.654;2023-06-22T08:11:25;100284.03;;;29.65;49.19
76378;BME280;65200;49.500;8.654;2023-06-22T08:13:51;100301.16;;;30.14;48.64
76378;BME280;65200;49.500;8.654;2023-06-22T08:16:20;100311.06;;;30.07;46.56
76378;BME280;65200;49.500;8.654;2023-06-22T08:18:47;100304.88;;;30.10;48.68
76378;BME280;65200;49.500;8.654;2023-06-22T08:21:13;100288.38;;;30.35;47.64
76378;BME280;65200;49.500;8.654;2023-06-22T08:23:41;100294.25;;;30.42;47.43
76378;BME280;65200;49.500;8.654;2023-06-22T08:26:07;100305.53;;;30.71;46.40
76378;BME280;65200;49.500;8.654;2023-06-22T08:28:34;100312.84;;;30.59;45.68
76378;BME280;65200;49.500;8.654;2023-06-22T08:31:02;100302.59;;;30.68;47.03
76378;BME280;65200;49.500;8.654;2023-06-22T08:33:28;100298.72;;;30.86;44.79
76378;BME280;65200;49.500;8.654;2023-06-22T08:35:57;100292.47;;;30.55;45.75
76378;BME280;65200;49.500;8.654;2023-06-22T08:38:24;100283.06;;;30.73;46.84
76378;BME280;65200;49.500;8.654;2023-06-22T08:40:51;100291.72;;;30.80;46.28
76378;BME280;65200;49.500;8.654;2023-06-22T08:43:18;100289.22;;;30.53;48.89
76378;BME280;65200;49.500;8.654;2023-06-22T08:45:44;100285.44;;;30.32;46.91
76378;BME280;65200;49.500;8.654;2023-06-22T08:48:11;100290.66;;;30.33;48.44
76378;BME280;65200;49.500;8.654;2023-06-22T08:50:37;100276.75;;;30.98;48.52
76378;BME280;65200;49.500;8.654;2023-06-22T08:53:05;100278.53;;;30.94;48.90
76378;BME280;65200;49.500;8.654;2023-06-22T08:55:32;100282.06;;;30.69;45.91
76378;BME280;65200;49.500;8.654;2023-06-22T08:57:59;100277.25;;;30.83;49.57
76378;BME280;65200;49.500;8.654;2023-06-22T09:00:26;100279.16;;;30.57;47.96
76378;BME280;65200;49.500;8.654;2023-06-22T09:02:54;100272.81;;;30.73;47.88
76378;BME280;65200;49.500;8.654;2023-06-22T09:05:24;100268.06;;;31.17;45.80
76378;BME280;65200;49.500;8.654;2023-06-22T09:07:50;100278.00;;;31.35;44.03
76378;BME280;65200;49.500;8.654;2023-06-22T09:10:17;100288.09;;;31.94;43.32
76378;BME280;65200;49.500;8.654;2023-06-22T09:12:43;100290.47;;;32.04;43.26
76378;BME280;65200;49.500;8.654;2023-06-22T09:15:11;100293.06;;;32.09;42.84
76378;BME280;65200;49.500;8.654;2023-06-22T09:17:38;100289.00;;;32.06;41.22
76378;BME280;65200;49.500;8.654;2023-06-22T09:20:06;100283.56;;;31.81;45.55
76378;BME280;65200;49.500;8.654;2023-06-22T09:22:36;100285.94;;;31.53;43.35
76378;BME280;65200;49.500;8.654;2023-06-22T09:25:03;100277.72;;;30.85;45.19
76378;BME280;65200;49.500;8.654;2023-06-22T09:27:29;100272.13;;;30.59;45.38
76378;BME280;65200;49.500;8.654;2023-06-22T09:29:56;100265.50;;;30.86;44.41
76378;BME280;65200;49.500;8.654;2023-06-22T09:32:25;100268.56;;;30.67;44.43
76378;BME280;65200;49.500;8.654;2023-06-22T09:34:51;100264.06;;;30.80;45.49
76378;BME280;65200;49.500;8.654;2023-06-22T09:37:18;100256.19;;;30.31;46.99
76378;BME280;65200;49.500;8.654;2023-06-22T09:39:44;100238.16;;;30.93;44.68
76378;BME280;65200;49.500;8.654;2023-06-22T09:42:11;100233.22;;;31.24;44.61
76378;BME280;65200;49.500;8.654;2023-06-22T09:44:38;100232.88;;;31.26;43.60
76378;BME280;65200;49.500;8.654;2023-06-22T09:47:06;100234.06;;;30.99;45.71
76378;BME280;65200;49.500;8.654;2023-06-22T09:49:34;100208.91;;;31.21;43.53
76378;BME280;65200;49.500;8.654;2023-06-22T09:52:00;100206.56;;;31.49;44.72
76378;BME280;65200;49.500;8.654;2023-06-22T09:54:27;100196.75;;;32.18;42.01
76378;BME280;65200;49.500;8.654;2023-06-22T09:56:53;100194.19;;;31.92;41.09
76378;BME280;65200;49.500;8.654;2023-06-22T09:59:20;100188.00;;;31.87;41.14
76378;BME280;65200;49.500;8.654;2023-06-22T10:01:46;100187.13;;;31.95;40.90
76378;BME280;65200;49.500;8.654;2023-06-22T10:04:13;100180.78;;;32.36;41.36
76378;BME280;65200;49.500;8.654;2023-06-22T10:06:40;100181.78;;;32.40;42.16
76378;BME280;65200;49.500;8.654;2023-06-22T10:09:07;100176.63;;;32.83;40.83
76378;BME280;65200;49.500;8.654;2023-06-22T10:11:33;100176.94;;;33.02;40.87
76378;BME280;65200;49.500;8.654;2023-06-22T10:14:01;100185.19;;;32.78;39.95
76378;BME280;65200;49.500;8.654;2023-06-22T10:16:30;100185.44;;;32.85;41.47
76378;BME280;65200;49.500;8.654;2023-06-22T10:18:57;100185.47;;;32.23;42.75
76378;BME280;65200;49.500;8.654;2023-06-22T10:21:23;100178.66;;;31.91;43.23
76378;BME280;65200;49.500;8.654;2023-06-22T10:23:52;100171.50;;;31.61;43.35
76378;BME280;65200;49.500;8.654;2023-06-22T10:26:19;100181.97;;;31.85;45.80
76378;BME280;65200;49.500;8.654;2023-06-22T10:28:45;100173.50;;;32.31;43.41
76378;BME280;65200;49.500;8.654;2023-06-22T10:31:12;100171.47;;;31.99;42.06
76378;BME280;65200;49.500;8.654;2023-06-22T10:33:39;100154.97;;;32.44;41.67
76378;BME280;65200;49.500;8.654;2023-06-22T10:36:06;100162.47;;;32.23;42.11
76378;BME280;65200;49.500;8.654;2023-06-22T10:38:33;100152.91;;;32.32;42.97
76378;BME280;65200;49.500;8.654;2023-06-22T10:41:01;100154.59;;;32.04;41.20
76378;BME280;65200;49.500;8.654;2023-06-22T10:43:27;100151.09;;;31.95;44.64
76378;BME280;65200;49.500;8.654;2023-06-22T10:45:54;100136.66;;;31.81;42.61
76378;BME280;65200;49.500;8.654;2023-06-22T10:48:20;100123.78;;;31.76;43.18
76378;BME280;65200;49.500;8.654;2023-06-22T10:50:47;100133.91;;;31.52;45.67
76378;BME280;65200;49.500;8.654;2023-06-22T10:53:13;100132.69;;;31.90;43.32
76378;BME280;65200;49.500;8.654;2023-06-22T10:55:40;100139.09;;;32.65;43.73
76378;BME280;65200;49.500;8.654;2023-06-22T10:58:07;100135.28;;;32.69;41.32
76378;BME280;65200;49.500;8.654;2023-06-22T11:00:34;100126.19;;;32.81;42.01
76378;BME280;65200;49.500;8.654;2023-06-22T11:03:00;100126.72;;;32.62;41.23
76378;BME280;65200;49.500;8.654;2023-06-22T11:05:27;100124.75;;;32.63;42.28
76378;BME280;65200;49.500;8.654;2023-06-22T11:07:53;100126.31;;;32.52;41.73
76378;BME280;65200;49.500;8.654;2023-06-22T11:10:20;100117.59;;;32.21;42.52
76378;BME280;65200;49.500;8.654;2023-06-22T11:12:46;100117.69;;;31.91;43.79
76378;BME280;65200;49.500;8.654;2023-06-22T11:15:14;100118.97;;;32.15;44.16
76378;BME280;65200;49.500;8.654;2023-06-22T11:17:40;100118.81;;;32.52;42.66
76378;BME280;65200;49.500;8.654;2023-06-22T11:20:07;100108.19;;;32.87;43.14
76378;BME280;65200;49.500;8.654;2023-06-22T11:22:36;100108.25;;;33.35;41.04
76378;BME280;65200;49.500;8.654;2023-06-22T11:25:03;100102.94;;;33.66;41.92
76378;BME280;65200;49.500;8.654;2023-06-22T11:27:30;100095.97;;;33.24;41.58
76378;BME280;65200;49.500;8.654;2023-06-22T11:29:56;100101.69;;;32.83;41.99
76378;BME280;65200;49.500;8.654;2023-06-22T11:32:24;100100.34;;;32.36;43.73
76378;BME280;65200;49.500;8.654;2023-06-22T11:34:51;100104.00;;;32.48;45.21
76378;BME280;65200;49.500;8.654;2023-06-22T11:37:17;100108.50;;;32.41;43.69
76378;BME280;65200;49.500;8.654;2023-06-22T11:39:44;100099.28;;;32.28;43.41
76378;BME280;65200;49.500;8.654;2023-06-22T11:42:10;100092.03;;;32.36;42.59
76378;BME280;65200;49.500;8.654;2023-06-22T11:44:37;100092.34;;;32.55;44.47
76378;BME280;65200;49.500;8.654;2023-06-22T11:47:04;100099.66;;;33.28;43.55
76378;BME280;65200;49.500;8.654;2023-06-22T11:49:32;100095.81;;;33.93;39.80
76378;BME280;65200;49.500;8.654;2023-06-22T11:51:58;100094.78;;;33.97;38.52
76378;BME280;65200;49.500;8.654;2023-06-22T11:54:25;100101.53;;;33.72;40.48
76378;BME280;65200;49.500;8.654;2023-06-22T11:56:51;100089.50;;;33.44;39.92
76378;BME280;65200;49.500;8.654;2023-06-22T11:59:18;100099.69;;;33.16;41.94
76378;BME280;65200;49.500;8.654;2023-06-22T12:01:47;100090.75;;;33.10;41.76
76378;BME280;65200;49.500;8.654;2023-06-22T12:04:14;100090.41;;;33.24;40.05
76378;BME280;65200;49.500;8.654;2023-06-22T12:06:42;100080.91;;;33.25;40.78
76378;BME280;65200;49.500;8.654;2023-06-22T12:09:09;100079.00;;;32.81;38.83
76378;BME280;65200;49.500;8.654;2023-06-22T12:11:35;100083.84;;;32.72;40.14
76378;BME280;65200;49.500;8.654;2023-06-22T12:14:01;100068.66;;;32.69;40.42
76378;BME280;65200;49.500;8.654;2023-06-22T12:16:28;100082.72;;;32.85;40.63
76378;BME280;65200;49.500;8.654;2023-06-22T12:18:54;100088.22;;;32.61;39.46
76378;BME280;65200;49.500;8.654;2023-06-22T12:21:21;100093.56;;;33.22;40.60
76378;BME280;65200;49.500;8.654;2023-06-22T12:23:49;100087.53;;;33.57;40.91
76378;BME280;65200;49.500;8.654;2023-06-22T12:26:15;100092.28;;;33.56;38.79
76378;BME280;65200;49.500;8.654;2023-06-22T12:28:42;100080.94;;;33.37;37.98
76378;BME280;65200;49.500;8.654;2023-06-22T12:31:09;100090.63;;;32.95;39.18
76378;BME280;65200;49.500;8.654;2023-06-22T12:33:36;100097.34;;;33.06;38.82
76378;BME280;65200;49.500;8.654;2023-06-22T12:36:03;100093.19;;;33.60;40.19
76378;BME280;65200;49.500;8.654;2023-06-22T12:38:30;100094.13;;;33.16;38.98
76378;BME280;65200;49.500;8.654;2023-06-22T12:40:57;100091.78;;;33.18;38.60
76378;BME280;65200;49.500;8.654;2023-06-22T12:43:24;100087.53;;;33.45;40.50
76378;BME280;65200;49.500;8.654;2023-06-22T12:45:50;100086.13;;;33.63;37.86
76378;BME280;65200;49.500;8.654;2023-06-22T12:48:18;100091.09;;;33.93;37.94